createdAt,value
2019-03-08T00:01:43.963Z,6.20
2019-03-08T00:04:15.010Z,6.20
2019-03-08T00:06:45.905Z,6.30
2019-03-08T00:09:16.459Z,6.30
2019-03-08T00:11:46.999Z,6.30
2019-03-08T00:14:17.684Z,6.30
2019-03-08T00:16:48.331Z,6.30
2019-03-08T00:19:18.795Z,6.30
2019-03-08T00:21:49.512Z,6.30
2019-03-08T00:24:20.073Z,6.20
2019-03-08T00:26:50.926Z,6.20
2019-03-08T00:29:21.449Z,6.20
2019-03-08T00:31:52.918Z,6.20
2019-03-08T00:34:23.574Z,6.20
2019-03-08T00:36:54.077Z,6.20
2019-03-08T00:39:24.586Z,6.20
2019-03-08T00:41:55.420Z,6.20
2019-03-08T00:44:26.019Z,6.20
2019-03-08T00:46:56.811Z,6.20
2019-03-08T00:49:27.524Z,6.20
2019-03-08T00:51:58.035Z,6.20
2019-03-08T00:54:28.681Z,6.20
2019-03-08T00:56:59.235Z,6.20
2019-03-08T00:59:30.034Z,6.20
2019-03-08T01:02:00.612Z,6.20
2019-03-08T01:04:32.669Z,6.20
2019-03-08T01:07:03.771Z,6.20
2019-03-08T01:09:34.915Z,6.20
2019-03-08T01:12:05.850Z,6.20
2019-03-08T01:14:36.623Z,6.20
2019-03-08T01:17:07.763Z,6.30
2019-03-08T01:19:38.314Z,6.20
2019-03-08T01:22:10.699Z,6.30
2019-03-08T01:24:41.147Z,6.20
2019-03-08T01:27:11.639Z,6.20
2019-03-08T01:29:42.118Z,6.30
2019-03-08T01:32:12.842Z,6.20
2019-03-08T01:34:44.383Z,6.20
2019-03-08T01:37:14.782Z,6.30
2019-03-08T01:39:45.282Z,6.20
2019-03-08T01:42:15.727Z,6.20
2019-03-08T01:44:46.288Z,6.20
2019-03-08T01:47:16.735Z,6.20
2019-03-08T01:49:47.774Z,6.20
2019-03-08T01:52:18.268Z,6.20
2019-03-08T01:54:48.955Z,6.20
2019-03-08T01:57:19.464Z,6.20
2019-03-08T01:59:51.030Z,6.10
2019-03-08T02:02:21.470Z,6.20
2019-03-08T02:04:51.869Z,6.20
2019-03-08T02:07:22.379Z,6.20
2019-03-08T02:09:53.271Z,6.20
2019-03-08T02:12:24.570Z,6.20
2019-03-08T02:14:54.910Z,6.20
2019-03-08T02:17:25.353Z,6.20
2019-03-08T02:19:55.828Z,6.20
2019-03-08T02:22:26.336Z,6.20
2019-03-08T02:24:56.982Z,6.20
2019-03-08T02:27:27.323Z,6.20
2019-03-08T02:29:58.023Z,6.20
2019-03-08T02:32:28.435Z,6.30
2019-03-08T02:34:59.343Z,6.30
2019-03-08T02:37:29.811Z,6.30
2019-03-08T02:40:00.325Z,6.20
2019-03-08T02:42:30.602Z,6.20
2019-03-08T02:45:01.151Z,6.20
2019-03-08T02:47:31.600Z,6.20
2019-03-08T02:50:02.205Z,6.20
2019-03-08T02:52:33.479Z,6.20
2019-03-08T02:55:04.160Z,6.20
2019-03-08T02:57:34.525Z,6.20
2019-03-08T03:00:05.948Z,6.20
2019-03-08T03:02:37.591Z,6.20
2019-03-08T03:05:08.339Z,6.10
2019-03-08T03:07:38.826Z,6.20
2019-03-08T03:10:09.491Z,6.20
2019-03-08T03:12:40.072Z,6.10
2019-03-08T03:15:11.251Z,6.20
2019-03-08T03:17:41.605Z,6.10
2019-03-08T03:20:12.223Z,6.10
2019-03-08T03:22:42.495Z,6.10
2019-03-08T03:25:13.455Z,6.10
2019-03-08T03:27:43.762Z,6.10
2019-03-08T03:30:14.754Z,6.10
2019-03-08T03:32:45.148Z,6.00
2019-03-08T03:35:16.095Z,6.00
2019-03-08T03:37:46.359Z,6.00
2019-03-08T03:40:17.255Z,5.90
2019-03-08T03:42:47.639Z,6.00
2019-03-08T03:45:18.223Z,6.00
2019-03-08T03:47:49.045Z,6.00
2019-03-08T03:50:19.627Z,6.00
2019-03-08T03:52:50.085Z,5.90
2019-03-08T03:55:20.635Z,5.90
2019-03-08T03:57:51.031Z,5.80
2019-03-08T04:00:21.592Z,5.90
2019-03-08T04:02:52.088Z,5.90
2019-03-08T04:05:22.743Z,5.90
2019-03-08T04:07:53.062Z,5.90
2019-03-08T04:10:23.425Z,6.00
2019-03-08T04:12:53.919Z,6.00
2019-03-08T04:15:24.408Z,6.00
2019-03-08T04:17:54.734Z,6.00
2019-03-08T04:20:25.523Z,6.00
2019-03-08T04:22:55.855Z,6.00
2019-03-08T04:25:26.273Z,6.00
2019-03-08T04:27:56.572Z,6.00
2019-03-08T04:30:27.015Z,6.10
2019-03-08T04:32:57.447Z,6.10
2019-03-08T04:35:28.515Z,6.10
2019-03-08T04:37:58.981Z,6.10
2019-03-08T04:40:29.527Z,6.10
2019-03-08T04:43:00.087Z,6.10
2019-03-08T04:45:30.537Z,6.10
2019-03-08T04:48:00.903Z,6.10
2019-03-08T04:50:31.822Z,6.10
2019-03-08T04:53:03.719Z,6.10
2019-03-08T04:55:34.640Z,6.10
2019-03-08T04:58:05.473Z,6.10
2019-03-08T05:00:35.904Z,6.00
2019-03-08T05:03:06.381Z,6.00
2019-03-08T05:05:37.027Z,6.00
2019-03-08T05:08:07.591Z,6.00
2019-03-08T05:10:38.068Z,6.00
2019-03-08T05:13:09.591Z,6.00
2019-03-08T05:15:40.169Z,5.90
2019-03-08T05:18:12.899Z,5.90
2019-03-08T05:20:44.977Z,6.00
2019-03-08T05:23:15.447Z,5.90
2019-03-08T05:25:46.060Z,6.00
2019-03-08T05:28:16.541Z,5.90
2019-03-08T05:30:47.232Z,5.90
2019-03-08T05:33:19.554Z,5.90
2019-03-08T05:35:50.209Z,6.00
2019-03-08T05:38:20.839Z,6.00
2019-03-08T05:40:51.268Z,5.90
2019-03-08T05:43:21.952Z,6.00
2019-03-08T05:45:52.663Z,6.00
2019-03-08T05:48:22.959Z,6.00
2019-03-08T05:50:53.679Z,6.00
2019-03-08T05:53:23.991Z,6.00
2019-03-08T05:55:55.689Z,6.00
2019-03-08T05:58:27.193Z,6.00
2019-03-08T06:04:06.997Z,5.90
2019-03-08T06:06:39.037Z,5.90
2019-03-08T06:12:50.775Z,5.90
2019-03-08T06:15:24.353Z,5.90
2019-03-08T06:17:56.381Z,5.90
2019-03-08T06:20:27.013Z,5.90
2019-03-08T06:22:57.678Z,5.90
2019-03-08T06:25:28.036Z,5.90
2019-03-08T06:27:58.587Z,5.90
2019-03-08T06:30:29.146Z,5.90
2019-03-08T06:32:59.784Z,5.90
2019-03-08T06:35:30.224Z,5.90
2019-03-08T06:38:00.674Z,5.90
2019-03-08T06:40:31.283Z,5.90
2019-03-08T06:43:01.911Z,5.90
2019-03-08T06:45:33.362Z,5.90
2019-03-08T06:48:06.229Z,6.00
2019-03-08T06:50:43.412Z,6.00
2019-03-08T06:53:17.415Z,6.00
2019-03-08T06:55:48.226Z,5.90
2019-03-08T06:58:29.886Z,6.00
2019-03-08T07:01:11.869Z,6.00
2019-03-08T07:03:42.400Z,6.00
2019-03-08T07:06:12.788Z,6.00
2019-03-08T07:08:43.436Z,6.00
2019-03-08T07:11:13.795Z,6.00
2019-03-08T07:13:44.353Z,6.00
2019-03-08T07:16:14.843Z,6.00
2019-03-08T07:18:45.715Z,6.00
2019-03-08T07:21:35.084Z,6.00
2019-03-08T07:24:31.037Z,6.00
2019-03-08T07:27:13.029Z,6.10
2019-03-08T07:30:11.591Z,6.10
2019-03-08T07:32:59.459Z,6.10
2019-03-08T07:36:01.021Z,6.20
2019-03-08T07:38:59.572Z,6.20
2019-03-08T07:41:52.105Z,6.20
2019-03-08T07:44:50.305Z,6.20
2019-03-08T07:47:41.111Z,6.20
2019-03-08T07:50:42.680Z,6.30
2019-03-08T07:53:30.359Z,6.30
2019-03-08T07:56:10.063Z,6.30
2019-03-08T07:59:05.256Z,6.30
2019-03-08T08:02:06.827Z,6.30
2019-03-08T08:04:55.020Z,6.30
2019-03-08T08:07:37.475Z,6.30
2019-03-08T08:10:36.813Z,6.30
2019-03-08T08:13:24.573Z,6.20
2019-03-08T08:16:09.089Z,6.20
2019-03-08T08:19:01.424Z,6.30
2019-03-08T08:21:53.661Z,6.30
2019-03-08T08:24:45.659Z,6.20
2019-03-08T08:27:22.615Z,6.30
2019-03-08T08:30:18.123Z,6.20
2019-03-08T08:33:09.859Z,6.10
2019-03-08T08:36:09.111Z,6.20
2019-03-08T08:39:04.491Z,6.10
2019-03-08T08:41:55.346Z,6.10
2019-03-08T08:44:53.008Z,6.10
2019-03-08T08:47:47.623Z,6.00
2019-03-08T08:50:43.392Z,6.00
2019-03-08T08:53:27.868Z,5.90
2019-03-08T08:56:10.728Z,5.90
2019-03-08T08:58:46.611Z,6.00
2019-03-08T09:01:51.355Z,5.90
2019-03-08T09:04:42.053Z,5.80
2019-03-08T09:07:30.216Z,5.70
2019-03-08T09:10:22.283Z,5.90
2019-03-08T09:13:07.040Z,5.70
2019-03-08T09:15:41.959Z,5.80
2019-03-08T09:18:21.621Z,5.80
2019-03-08T09:21:11.059Z,5.80
2019-03-08T09:23:57.423Z,5.80
2019-03-08T09:26:49.743Z,5.80
2019-03-08T09:29:41.467Z,5.70
2019-03-08T09:32:28.848Z,5.90
2019-03-08T09:35:21.230Z,6.00
2019-03-08T09:38:02.682Z,6.20
2019-03-08T09:41:04.108Z,6.40
2019-03-08T09:43:59.468Z,6.20
2019-03-08T09:46:51.440Z,5.90
2019-03-08T09:49:45.099Z,5.90
2019-03-08T09:52:40.275Z,6.00
2019-03-08T09:55:29.921Z,5.60
2019-03-08T09:58:06.183Z,5.60
2019-03-08T10:00:58.275Z,5.30
2019-03-08T10:03:56.967Z,5.50
2019-03-08T10:06:34.190Z,5.30
2019-03-08T10:09:27.120Z,5.50
2019-03-08T10:12:34.593Z,5.50
2019-03-08T10:15:23.094Z,5.70
2019-03-08T10:18:11.611Z,5.70
2019-03-08T10:20:59.844Z,5.70
2019-03-08T10:23:41.084Z,5.90
2019-03-08T10:26:36.415Z,6.00
2019-03-08T10:29:24.520Z,6.20
2019-03-08T10:32:23.158Z,6.30
2019-03-08T10:35:23.575Z,6.50
2019-03-08T10:38:12.018Z,6.50
2019-03-08T10:40:50.703Z,5.80
2019-03-08T10:43:49.086Z,6.10
2019-03-08T10:46:49.008Z,6.00
2019-03-08T10:49:28.690Z,6.10
2019-03-08T10:52:17.714Z,6.30
2019-03-08T10:55:19.664Z,6.40
2019-03-08T10:58:15.052Z,6.30
2019-03-08T11:01:03.147Z,5.90
2019-03-08T11:03:45.850Z,6.40
2019-03-08T11:06:39.183Z,6.40
2019-03-08T11:09:44.803Z,6.00
2019-03-08T11:12:33.606Z,5.60
2019-03-08T11:15:23.915Z,5.70
2019-03-08T11:18:05.402Z,6.10
2019-03-08T11:20:53.441Z,6.50
2019-03-08T11:23:34.554Z,6.70
2019-03-08T11:26:30.097Z,6.60
2019-03-08T11:29:25.227Z,6.80
2019-03-08T11:32:22.497Z,7.00
2019-03-08T11:35:11.027Z,6.60
2019-03-08T11:37:56.451Z,6.20
2019-03-08T11:41:01.204Z,6.10
2019-03-08T11:43:49.173Z,6.00
2019-03-08T11:46:44.992Z,6.00
2019-03-08T11:49:32.679Z,6.00
2019-03-08T11:52:10.015Z,5.90
2019-03-08T11:55:02.465Z,5.70
2019-03-08T11:58:01.323Z,5.50
2019-03-08T12:00:50.683Z,5.50
2019-03-08T12:03:35.055Z,5.00
2019-03-08T12:06:22.802Z,4.90
2019-03-08T12:09:02.381Z,4.50
2019-03-08T12:11:53.209Z,4.50
2019-03-08T12:14:41.514Z,4.50
2019-03-08T12:17:30.967Z,4.30
2019-03-08T12:20:12.273Z,4.10
2019-03-08T12:23:13.133Z,4.20
2019-03-08T12:26:01.096Z,4.20
2019-03-08T12:28:56.568Z,4.30
2019-03-08T12:32:04.015Z,4.20
2019-03-08T12:35:13.440Z,4.30
2019-03-08T12:37:56.339Z,4.30
2019-03-08T12:41:00.526Z,4.20
2019-03-08T12:43:54.334Z,4.40
2019-03-08T12:46:38.212Z,4.70
2019-03-08T12:49:15.171Z,4.50
2019-03-08T12:52:03.269Z,4.40
2019-03-08T12:54:42.739Z,4.20
2019-03-08T12:57:30.822Z,4.10
2019-03-08T13:00:26.103Z,4.40
2019-03-08T13:03:21.667Z,4.70
2019-03-08T13:06:16.141Z,5.30
2019-03-08T13:09:08.834Z,5.30
2019-03-08T13:11:39.930Z,5.50
2019-03-08T13:14:10.327Z,5.60
2019-03-08T13:16:40.654Z,5.50
2019-03-08T13:19:13.983Z,5.30
2019-03-08T13:21:45.047Z,5.20
2019-03-08T13:24:18.507Z,5.00
2019-03-08T13:26:50.585Z,5.20
2019-03-08T13:29:22.865Z,4.90
2019-03-08T13:31:53.385Z,5.10
2019-03-08T13:34:24.052Z,5.30
2019-03-08T13:36:54.367Z,5.60
2019-03-08T13:39:25.329Z,5.40
2019-03-08T13:41:55.708Z,5.30
2019-03-08T13:44:26.519Z,5.50
2019-03-08T13:46:58.579Z,5.70
2019-03-08T13:49:29.069Z,5.90
2019-03-08T13:52:00.539Z,6.00
2019-03-08T13:54:31.073Z,6.20
2019-03-08T13:57:01.548Z,6.10
2019-03-08T13:59:32.380Z,6.20
2019-03-08T14:02:04.962Z,6.60
2019-03-08T14:04:35.584Z,6.90
2019-03-08T14:07:11.998Z,6.80
2019-03-08T14:09:42.600Z,6.50
2019-03-08T14:12:13.252Z,7.00
2019-03-08T14:14:44.010Z,7.20
2019-03-08T14:17:17.479Z,6.80
2019-03-08T14:19:48.154Z,6.90
2019-03-08T14:22:18.615Z,6.90
2019-03-08T14:24:54.487Z,7.00
2019-03-08T14:27:24.944Z,7.40
2019-03-08T14:29:59.207Z,7.50
2019-03-08T14:32:27.547Z,7.60
2019-03-08T14:34:58.115Z,7.50
2019-03-08T14:37:28.513Z,6.80
2019-03-08T14:39:59.073Z,6.60
2019-03-08T14:42:40.497Z,6.10
2019-03-08T14:45:17.561Z,5.90
2019-03-08T14:47:53.032Z,5.50
2019-03-08T14:50:25.096Z,5.30
2019-03-08T14:52:57.239Z,5.30
2019-03-08T14:55:30.652Z,5.40
2019-03-08T14:58:01.086Z,5.60
2019-03-08T15:00:31.803Z,5.80
2019-03-08T15:03:02.163Z,6.00
2019-03-08T15:05:32.452Z,6.30
2019-03-08T15:08:03.163Z,6.30
2019-03-08T15:10:39.493Z,6.20
2019-03-08T15:13:05.522Z,6.00
2019-03-08T15:15:35.955Z,6.10
2019-03-08T15:18:06.425Z,6.20
2019-03-08T15:20:37.825Z,6.30
2019-03-08T15:23:08.515Z,6.40
2019-03-08T15:25:39.075Z,6.30
2019-03-08T15:28:09.803Z,6.10
2019-03-08T15:30:40.837Z,6.00
2019-03-08T15:33:11.940Z,5.70
2019-03-08T15:35:42.748Z,5.20
2019-03-08T15:38:13.430Z,5.00
2019-03-08T15:40:45.563Z,4.80
2019-03-08T15:43:16.258Z,4.90
2019-03-08T15:45:46.960Z,4.90
2019-03-08T15:48:17.600Z,4.90
2019-03-08T15:50:48.165Z,5.10
2019-03-08T15:53:18.631Z,5.10
2019-03-08T15:55:52.950Z,4.90
2019-03-08T15:58:21.259Z,4.80
2019-03-08T16:00:51.777Z,4.70
2019-03-08T16:03:22.505Z,4.60
2019-03-08T16:05:53.055Z,4.50
2019-03-08T16:08:25.284Z,4.50
2019-03-08T16:10:55.712Z,4.40
2019-03-08T16:13:26.088Z,4.40
2019-03-08T16:15:56.630Z,4.30
2019-03-08T16:18:27.384Z,4.20
2019-03-08T16:20:57.774Z,4.10
2019-03-08T16:23:38.780Z,4.00
2019-03-08T16:26:09.207Z,4.00
2019-03-08T16:28:48.528Z,4.00
2019-03-08T16:31:47.193Z,4.10
2019-03-08T16:34:17.588Z,4.10
2019-03-08T16:37:07.057Z,4.20
2019-03-08T16:39:50.855Z,4.30
2019-03-08T16:42:52.273Z,4.30
2019-03-08T16:46:31.528Z,4.30
2019-03-08T16:49:26.821Z,4.20
2019-03-08T16:52:30.587Z,4.30
2019-03-08T16:55:43.631Z,4.30
2019-03-08T16:58:54.793Z,4.30
2019-03-08T17:01:43.286Z,4.40
2019-03-08T17:04:44.315Z,4.40
2019-03-08T17:07:38.849Z,4.50
2019-03-08T17:10:35.862Z,4.60
2019-03-08T17:13:16.723Z,4.70
2019-03-08T17:16:12.293Z,4.70
2019-03-08T17:18:56.603Z,4.70
2019-03-08T17:21:36.085Z,4.80
2019-03-08T17:24:18.864Z,4.70
2019-03-08T17:27:08.504Z,4.70
2019-03-08T17:30:03.827Z,4.70
2019-03-08T17:33:00.530Z,4.70
2019-03-08T17:36:01.991Z,4.60
2019-03-08T17:38:59.308Z,4.60
2019-03-08T17:41:38.220Z,4.50
2019-03-08T17:44:25.991Z,4.50
2019-03-08T17:47:29.905Z,4.40
2019-03-08T17:50:18.828Z,4.30
2019-03-08T17:53:23.165Z,4.30
2019-03-08T17:56:15.336Z,4.10
2019-03-08T17:59:10.788Z,4.10
2019-03-08T18:01:53.591Z,4.00
2019-03-08T18:04:43.224Z,3.90
2019-03-08T18:07:33.360Z,3.70
2019-03-08T18:10:28.843Z,3.80
2019-03-08T18:13:25.821Z,3.80
2019-03-08T18:16:30.338Z,3.80
2019-03-08T18:19:20.455Z,3.90
2019-03-08T18:22:12.989Z,3.80
2019-03-08T18:25:14.399Z,3.80
2019-03-08T18:28:04.536Z,3.80
2019-03-08T18:30:45.648Z,3.80
2019-03-08T18:33:43.998Z,3.70
2019-03-08T18:36:28.695Z,3.90
2019-03-08T18:39:12.999Z,3.90
2019-03-08T18:42:08.813Z,3.80
2019-03-08T18:44:57.551Z,3.80
2019-03-08T18:47:34.563Z,3.70
2019-03-08T18:50:22.467Z,3.80
2019-03-08T18:53:15.188Z,3.80
2019-03-08T18:56:11.749Z,3.80
2019-03-08T18:59:04.199Z,3.80
2019-03-08T19:01:51.391Z,3.80
2019-03-08T19:04:50.074Z,3.70
2019-03-08T19:07:42.740Z,3.70
2019-03-08T19:10:25.277Z,3.80
2019-03-08T19:13:14.625Z,3.70
2019-03-08T19:16:08.424Z,3.70
2019-03-08T19:18:57.159Z,3.80
2019-03-08T19:21:51.385Z,3.70
2019-03-08T19:24:47.087Z,3.70
2019-03-08T19:27:49.403Z,3.60
2019-03-08T19:30:26.931Z,3.60
2019-03-08T19:33:12.559Z,3.60
2019-03-08T19:35:57.107Z,3.60
2019-03-08T19:38:46.067Z,3.60
2019-03-08T19:41:44.494Z,3.60
2019-03-08T19:44:36.927Z,3.50
2019-03-08T19:47:17.729Z,3.40
2019-03-08T19:49:59.211Z,3.40
2019-03-08T19:52:38.022Z,3.40
2019-03-08T19:55:15.393Z,3.40
2019-03-08T19:58:03.111Z,3.40
2019-03-08T20:00:43.709Z,3.30
2019-03-08T20:03:29.776Z,3.50
2019-03-08T20:06:09.778Z,3.30
2019-03-08T20:08:59.403Z,3.40
2019-03-08T20:11:47.427Z,3.40
2019-03-08T20:14:24.995Z,3.50
2019-03-08T20:17:17.151Z,3.40
2019-03-08T20:20:24.659Z,3.40
2019-03-08T20:23:21.243Z,3.40
2019-03-08T20:26:16.688Z,3.50
2019-03-08T20:29:01.361Z,3.50
2019-03-08T20:31:56.038Z,3.40
2019-03-08T20:34:35.887Z,3.50
2019-03-08T20:37:14.711Z,3.50
2019-03-08T20:40:07.273Z,3.50
2019-03-08T20:42:45.722Z,3.40
2019-03-08T20:45:20.703Z,3.40
2019-03-08T20:47:51.303Z,3.40
2019-03-08T20:50:22.651Z,3.40
2019-03-08T20:52:53.135Z,3.40
2019-03-08T20:55:25.298Z,3.40
2019-03-08T20:57:56.147Z,3.40
2019-03-08T21:00:26.722Z,3.30
2019-03-08T21:02:57.559Z,3.30
2019-03-08T21:05:28.087Z,3.30
2019-03-08T21:07:59.147Z,3.30
2019-03-08T21:10:30.360Z,3.30
2019-03-08T21:13:00.787Z,3.30
2019-03-08T21:15:32.632Z,3.30
2019-03-08T21:18:03.010Z,3.40
2019-03-08T21:20:33.516Z,3.40
2019-03-08T21:23:04.043Z,3.40
2019-03-08T21:25:35.007Z,3.40
2019-03-08T21:28:05.715Z,3.50
2019-03-08T21:30:36.356Z,3.40
2019-03-08T21:33:07.199Z,3.40
2019-03-08T21:35:37.575Z,3.50
2019-03-08T21:38:08.276Z,3.40
2019-03-08T21:40:39.323Z,3.40
2019-03-08T21:43:09.685Z,3.40
2019-03-08T21:45:40.203Z,3.50
2019-03-08T21:48:13.042Z,3.60
2019-03-08T21:50:43.699Z,3.60
2019-03-08T21:53:14.147Z,3.70
2019-03-08T21:55:44.696Z,3.80
2019-03-08T21:58:15.291Z,3.90
2019-03-08T22:00:45.863Z,3.80
2019-03-08T22:03:16.259Z,3.80
2019-03-08T22:05:47.117Z,3.80
2019-03-08T22:08:18.061Z,3.80
2019-03-08T22:10:56.425Z,3.90
2019-03-08T22:13:26.781Z,3.80
2019-03-08T22:15:58.494Z,3.80
2019-03-08T22:18:29.004Z,3.90
2019-03-08T22:20:59.891Z,4.00
2019-03-08T22:23:30.412Z,4.00
2019-03-08T22:26:01.265Z,4.10
2019-03-08T22:28:31.823Z,4.20
2019-03-08T22:31:05.695Z,4.20
2019-03-08T22:33:36.115Z,4.10
2019-03-08T22:36:06.621Z,4.20
2019-03-08T22:38:37.243Z,4.20
2019-03-08T22:41:07.710Z,4.30
2019-03-08T22:43:38.445Z,4.30
2019-03-08T22:46:08.988Z,4.30
2019-03-08T22:48:41.696Z,4.40
2019-03-08T22:51:11.871Z,4.50
2019-03-08T22:53:42.355Z,4.50
2019-03-08T22:56:13.079Z,4.50
2019-03-08T22:58:43.514Z,4.50
2019-03-08T23:01:17.211Z,4.60
2019-03-08T23:03:48.067Z,4.60
2019-03-08T23:06:18.803Z,4.60
2019-03-08T23:08:49.375Z,4.60
2019-03-08T23:11:20.063Z,4.50
2019-03-08T23:13:50.435Z,4.50
2019-03-08T23:16:21.919Z,4.50
2019-03-08T23:18:52.422Z,4.40
2019-03-08T23:21:22.776Z,4.40
2019-03-08T23:23:53.353Z,4.50
2019-03-08T23:26:24.014Z,4.50
2019-03-08T23:29:03.791Z,4.50
2019-03-08T23:31:40.690Z,4.50
2019-03-08T23:34:11.109Z,4.50
2019-03-08T23:36:41.584Z,4.50
2019-03-08T23:39:12.104Z,4.50
2019-03-08T23:41:42.933Z,4.60
2019-03-08T23:44:13.514Z,4.60
2019-03-08T23:46:43.775Z,4.60
2019-03-08T23:49:14.391Z,4.70
2019-03-08T23:51:44.836Z,4.70
2019-03-08T23:54:15.179Z,4.70
2019-03-08T23:56:45.699Z,4.70
2019-03-08T23:59:16.095Z,4.60
